aviador You're here:

KEST Decoded Metar

ESTHERVILLE in IA, USA
Report Time2018-02-19 11:52:00
UTC Time2018-02-19 11:57:28
Flight Rules ifr IFR
Wind010° at 21 Gusting to 29 kt
W.Decomp.*RWY 34: 19.2 kt HW 8.5 kt RCW
RWY 06: 11.7 kt HW 17.4 kt LCW
W.Rank010° ranks 18
Current wind is above 010° avg. (9.6)
Visibility2816 m
Phenomena:Light Snow
Mist
Clouds:Overcast 005 Hf
Expected CloudBase > 400 ft AGL from Temp-Dew spread
Ceiling500 ft
Temp-6°C (ISA -18)
Dew Point-7°C (93% RH)
AAT-16.4°C
QNH1008 hPa
Density Alt-728 ft
Elevation1,316 ft
Report Wrong Elevation
Raw Report
METAR KEST 191152Z AUTO 01021G29KT 1 3/4SM -SN BR OVC005 M06/M07 A2977
RMK AO2 PK WND 36029/1146 SNB23 SLP098 P0000 60000 I1001
I6001 T10611072 11050 21061 52010=

Extra information for KEST:More info

Metar Taf Metar & Taf Last 4 Metars F.Rules Stats Wind Profile Meteogram Temp Stats Airport Information Weather charts Add Link Nearby VenuesMetar ALERT Operation Metar Decoded Social comments

AIRNAV info for KEST